Spray, North Carolina
Current Conditions -  °F | °C
As of 12:15 PM on Wednesday 26 Nov 2014 (Local Time) from KSIF Reporting Station
Light Rain Light Rain  
Wind Chill: 34°   Ceiling: 3400
Heat Index: 38°   Visibility: 10mi
Dew Point: 37°   Wind: 5mph
Humidity: 97%   Direction: 330°NNW
Pressure: 30"   Gusts: NA
Location:  36.5114°N, 79.7844°W
Report Text: KSIF 261715Z AUTO 33004KT 10SM -RA SCT026 BKN034 OVC040 03/03 A3000 RMK AO2 T00330028
Loading
Personal Weather Stations






























Interactive Weather Map New forecast layout! Learn more

10-Day Weather Forecast

Advertisements
Track Severe Weather on mobile